createdAt,value
2018-09-02T00:00:07.125Z,52.00
2018-09-02T00:02:35.512Z,52.20
2018-09-02T00:05:03.875Z,52.40
2018-09-02T00:07:32.236Z,52.30
2018-09-02T00:10:00.955Z,52.40
2018-09-02T00:12:29.292Z,52.30
2018-09-02T00:14:57.683Z,52.20
2018-09-02T00:17:26.072Z,52.10
2018-09-02T00:19:54.431Z,52.10
2018-09-02T00:22:22.729Z,52.10
2018-09-02T00:24:51.078Z,52.00
2018-09-02T00:27:19.434Z,52.10
2018-09-02T00:29:47.885Z,52.00
2018-09-02T00:32:16.292Z,51.50
2018-09-02T00:34:44.635Z,51.20
2018-09-02T00:37:12.950Z,51.60
2018-09-02T00:39:41.421Z,51.00
2018-09-02T00:42:09.777Z,51.10
2018-09-02T00:44:38.180Z,51.40
2018-09-02T00:47:06.543Z,51.10
2018-09-02T00:49:34.842Z,51.20
2018-09-02T00:52:03.131Z,51.10
2018-09-02T00:54:31.460Z,51.10
2018-09-02T00:56:59.864Z,51.00
2018-09-02T00:59:28.206Z,50.90
2018-09-02T01:01:56.535Z,51.00
2018-09-02T01:04:24.861Z,51.00
2018-09-02T01:06:53.165Z,51.10
2018-09-02T01:09:21.524Z,51.10
2018-09-02T01:11:49.865Z,51.10
2018-09-02T01:14:18.167Z,51.00
2018-09-02T01:16:46.543Z,51.10
2018-09-02T01:19:14.832Z,51.00
2018-09-02T01:21:43.150Z,50.90
2018-09-02T01:24:11.548Z,50.90
2018-09-02T01:26:39.921Z,51.00
2018-09-02T01:29:08.319Z,51.00
2018-09-02T01:31:36.716Z,51.00
2018-09-02T01:34:05.283Z,51.10
2018-09-02T01:36:33.576Z,51.20
2018-09-02T01:39:02.030Z,51.20
2018-09-02T01:41:30.335Z,51.30
2018-09-02T01:43:58.625Z,51.30
2018-09-02T01:46:26.922Z,51.20
2018-09-02T01:48:55.209Z,51.30
2018-09-02T01:51:23.472Z,51.20
2018-09-02T01:53:51.766Z,50.70
2018-09-02T01:56:20.075Z,51.30
2018-09-02T01:58:48.425Z,51.30
2018-09-02T02:01:16.712Z,51.30
2018-09-02T02:03:45.000Z,51.30
2018-09-02T02:06:13.294Z,51.30
2018-09-02T02:08:41.572Z,51.20
2018-09-02T02:11:09.859Z,51.30
2018-09-02T02:13:38.158Z,51.30
2018-09-02T02:16:06.801Z,51.30
2018-09-02T02:18:35.287Z,51.30
2018-09-02T02:21:03.675Z,51.30
2018-09-02T02:23:32.186Z,51.30
2018-09-02T02:26:00.496Z,51.30
2018-09-02T02:28:28.850Z,51.30
2018-09-02T02:30:57.139Z,51.30
2018-09-02T02:33:25.418Z,51.40
2018-09-02T02:35:53.745Z,50.90
2018-09-02T02:38:22.020Z,51.30
2018-09-02T02:40:50.286Z,51.30
2018-09-02T02:43:18.597Z,51.30
2018-09-02T02:45:46.893Z,51.30
2018-09-02T02:48:15.188Z,51.30
2018-09-02T02:50:43.481Z,51.40
2018-09-02T02:53:11.781Z,51.50
2018-09-02T02:55:40.075Z,51.50
2018-09-02T02:58:09.006Z,51.50
2018-09-02T03:00:37.294Z,51.50
2018-09-02T03:03:05.634Z,51.70
2018-09-02T03:05:33.910Z,51.60
2018-09-02T03:08:02.203Z,51.50
2018-09-02T03:10:30.467Z,51.50
2018-09-02T03:12:58.778Z,51.50
2018-09-02T03:15:27.092Z,51.50
2018-09-02T03:17:55.375Z,51.50
2018-09-02T03:20:24.203Z,51.50
2018-09-02T03:22:52.518Z,51.50
2018-09-02T03:25:20.819Z,51.60
2018-09-02T03:27:49.099Z,51.60
2018-09-02T03:30:17.376Z,51.60
2018-09-02T03:32:45.667Z,51.60
2018-09-02T03:35:13.939Z,51.60
2018-09-02T03:37:42.224Z,51.60
2018-09-02T03:40:10.579Z,51.70
2018-09-02T03:42:38.903Z,51.60
2018-09-02T03:45:07.170Z,51.60
2018-09-02T03:47:35.471Z,51.70
2018-09-02T03:50:04.007Z,51.60
2018-09-02T03:52:32.331Z,51.60
2018-09-02T03:55:00.610Z,51.70
2018-09-02T03:57:28.899Z,51.70
2018-09-02T03:59:57.163Z,51.70
2018-09-02T04:02:25.597Z,51.60
2018-09-02T04:04:53.858Z,52.30
2018-09-02T04:07:22.172Z,51.80
2018-09-02T04:09:50.454Z,51.80
2018-09-02T04:12:18.728Z,52.30
2018-09-02T04:14:47.200Z,52.20
2018-09-02T04:17:15.555Z,51.70
2018-09-02T04:19:44.072Z,51.70
2018-09-02T04:22:12.339Z,51.80
2018-09-02T04:24:40.752Z,51.80
2018-09-02T04:27:09.053Z,51.70
2018-09-02T04:29:37.342Z,51.80
2018-09-02T04:32:06.352Z,51.90
2018-09-02T04:34:34.690Z,52.20
2018-09-02T04:37:02.987Z,51.80
2018-09-02T04:39:31.261Z,51.70
2018-09-02T04:41:59.539Z,51.90
2018-09-02T04:44:27.812Z,51.80
2018-09-02T04:46:56.107Z,52.30
2018-09-02T04:49:24.648Z,51.80
2018-09-02T04:51:53.006Z,51.90
2018-09-02T04:54:21.438Z,51.80
2018-09-02T04:56:49.715Z,51.90
2018-09-02T04:59:17.987Z,51.80
2018-09-02T05:01:46.257Z,52.40
2018-09-02T05:04:14.542Z,51.90
2018-09-02T05:06:43.695Z,51.90
2018-09-02T05:09:11.964Z,52.30
2018-09-02T05:11:40.254Z,51.90
2018-09-02T05:14:08.825Z,51.80
2018-09-02T05:16:37.078Z,52.00
2018-09-02T05:19:05.403Z,51.90
2018-09-02T05:21:33.886Z,51.90
2018-09-02T05:24:02.263Z,51.90
2018-09-02T05:26:30.542Z,52.00
2018-09-02T05:28:58.922Z,52.00
2018-09-02T05:31:27.208Z,52.10
2018-09-02T05:33:55.480Z,52.00
2018-09-02T05:36:23.917Z,51.90
2018-09-02T05:38:52.319Z,52.10
2018-09-02T05:41:20.606Z,52.00
2018-09-02T05:43:49.263Z,52.00
2018-09-02T05:46:17.559Z,52.00
2018-09-02T05:48:46.445Z,52.20
2018-09-02T05:51:14.724Z,52.00
2018-09-02T05:53:43.136Z,52.00
2018-09-02T05:56:11.453Z,52.20
2018-09-02T05:58:39.732Z,52.10
2018-09-02T06:01:08.009Z,52.10
2018-09-02T06:03:36.288Z,52.10
2018-09-02T06:06:04.904Z,52.10
2018-09-02T06:08:33.248Z,52.10
2018-09-02T06:11:01.574Z,52.20
2018-09-02T06:13:29.875Z,52.20
2018-09-02T06:15:58.190Z,52.30
2018-09-02T06:18:26.463Z,52.30
2018-09-02T06:20:54.867Z,52.30
2018-09-02T06:23:23.197Z,52.30
2018-09-02T06:25:51.532Z,52.40
2018-09-02T06:28:19.940Z,52.50
2018-09-02T06:30:48.235Z,52.60
2018-09-02T06:33:16.624Z,52.40
2018-09-02T06:35:44.906Z,52.50
2018-09-02T06:38:13.239Z,52.50
2018-09-02T06:40:41.668Z,52.50
2018-09-02T06:43:09.934Z,52.40
2018-09-02T06:45:38.311Z,52.40
2018-09-02T06:48:06.715Z,52.50
2018-09-02T06:50:35.012Z,52.50
2018-09-02T06:53:03.329Z,52.50
2018-09-02T06:55:31.685Z,52.50
2018-09-02T06:58:00.017Z,52.50
2018-09-02T07:00:28.365Z,52.50
2018-09-02T07:02:56.747Z,52.50
2018-09-02T07:05:25.351Z,52.50
2018-09-02T07:07:53.654Z,52.50
2018-09-02T07:10:21.964Z,53.20
2018-09-02T07:12:50.376Z,52.50
2018-09-02T07:15:18.744Z,53.10
2018-09-02T07:17:47.028Z,52.40
2018-09-02T07:20:15.365Z,52.50
2018-09-02T07:22:43.853Z,52.50
2018-09-02T07:25:12.224Z,52.50
2018-09-02T07:27:40.523Z,52.40
2018-09-02T07:30:08.835Z,52.40
2018-09-02T07:32:37.600Z,52.30
2018-09-02T07:35:05.951Z,52.20
2018-09-02T07:37:34.237Z,52.30
2018-09-02T07:40:02.543Z,52.40
2018-09-02T07:42:30.820Z,52.30
2018-09-02T07:44:59.144Z,52.30
2018-09-02T07:47:27.447Z,52.30
2018-09-02T07:49:55.759Z,52.30
2018-09-02T07:52:24.320Z,52.20
2018-09-02T07:54:52.840Z,52.10
2018-09-02T07:57:21.136Z,52.10
2018-09-02T07:59:49.419Z,52.10
2018-09-02T08:02:17.759Z,52.10
2018-09-02T08:04:46.058Z,52.10
2018-09-02T08:07:14.434Z,52.00
2018-09-02T08:09:42.719Z,52.10
2018-09-02T08:12:11.053Z,52.00
2018-09-02T08:14:39.392Z,52.00
2018-09-02T08:17:07.711Z,52.10
2018-09-02T08:19:36.144Z,52.10
2018-09-02T08:22:04.450Z,52.20
2018-09-02T08:24:32.814Z,52.10
2018-09-02T08:27:01.115Z,52.50
2018-09-02T08:29:29.425Z,52.10
2018-09-02T08:31:57.771Z,52.20
2018-09-02T08:34:26.245Z,52.10
2018-09-02T08:36:54.568Z,52.10
2018-09-02T08:39:22.955Z,52.20
2018-09-02T08:41:51.287Z,52.10
2018-09-02T08:44:19.781Z,52.10
2018-09-02T08:46:48.087Z,52.10
2018-09-02T08:49:16.417Z,52.10
2018-09-02T08:51:44.859Z,52.10
2018-09-02T08:54:13.270Z,52.00
2018-09-02T08:56:41.724Z,52.00
2018-09-02T08:59:10.128Z,52.10
2018-09-02T09:01:38.482Z,52.10
2018-09-02T09:04:06.808Z,52.20
2018-09-02T09:06:35.238Z,52.00
2018-09-02T09:09:03.891Z,52.10
2018-09-02T09:11:32.078Z,52.30
2018-09-02T09:14:00.460Z,52.50
2018-09-02T09:16:28.957Z,52.30
2018-09-02T09:18:57.498Z,52.40
2018-09-02T09:21:25.829Z,52.60
2018-09-02T09:23:54.314Z,52.30
2018-09-02T09:26:22.712Z,52.30
2018-09-02T09:28:51.226Z,52.30
2018-09-02T09:31:19.564Z,52.40
2018-09-02T09:33:47.951Z,52.30
2018-09-02T09:36:16.291Z,52.30
2018-09-02T09:38:44.684Z,52.30
2018-09-02T09:41:13.218Z,52.30
2018-09-02T09:43:41.676Z,52.40
2018-09-02T09:46:10.033Z,52.40
2018-09-02T09:48:38.443Z,53.10
2018-09-02T09:51:07.181Z,52.40
2018-09-02T09:53:35.530Z,52.50
2018-09-02T09:56:03.909Z,52.50
2018-09-02T09:58:32.288Z,52.50
2018-09-02T10:01:00.691Z,52.50
2018-09-02T10:03:29.213Z,52.60
2018-09-02T10:05:57.586Z,52.60
2018-09-02T10:08:25.907Z,52.60
2018-09-02T10:10:54.252Z,52.60
2018-09-02T10:13:22.601Z,52.60
2018-09-02T10:15:50.985Z,52.20
2018-09-02T10:18:19.324Z,52.60
2018-09-02T10:20:47.658Z,52.70
2018-09-02T10:23:15.990Z,52.70
2018-09-02T10:25:44.323Z,52.50
2018-09-02T10:28:12.673Z,52.50
2018-09-02T10:30:40.962Z,52.60
2018-09-02T10:33:09.276Z,52.50
2018-09-02T10:35:37.554Z,52.90
2018-09-02T10:38:05.892Z,52.20
2018-09-02T10:40:34.160Z,52.10
2018-09-02T10:43:02.471Z,52.00
2018-09-02T10:45:30.806Z,52.00
2018-09-02T10:47:59.116Z,51.90
2018-09-02T10:50:27.405Z,51.90
2018-09-02T10:52:55.738Z,51.90
2018-09-02T10:55:24.081Z,52.00
2018-09-02T10:57:52.424Z,52.00
2018-09-02T11:00:20.780Z,52.10
2018-09-02T11:02:49.116Z,52.20
2018-09-02T11:05:17.380Z,52.30
2018-09-02T11:07:45.707Z,52.50
2018-09-02T11:10:13.999Z,52.40
2018-09-02T11:12:42.464Z,52.50
2018-09-02T11:15:10.791Z,52.80
2018-09-02T11:17:39.131Z,52.70
2018-09-02T11:20:07.674Z,52.10
2018-09-02T11:22:35.948Z,52.40
2018-09-02T11:25:04.413Z,52.30
2018-09-02T11:27:32.722Z,52.30
2018-09-02T11:30:01.015Z,52.40
2018-09-02T11:32:29.714Z,52.40
2018-09-02T11:34:58.019Z,53.10
2018-09-02T11:37:26.320Z,52.40
2018-09-02T11:39:54.701Z,52.50
2018-09-02T11:42:23.175Z,52.40
2018-09-02T11:44:51.534Z,52.50
2018-09-02T11:47:19.840Z,52.50
2018-09-02T11:49:48.127Z,52.40
2018-09-02T11:52:16.423Z,52.70
2018-09-02T11:54:44.745Z,52.90
2018-09-02T11:57:13.048Z,53.00
2018-09-02T11:59:41.468Z,52.90
2018-09-02T12:02:09.774Z,52.80
2018-09-02T12:04:38.124Z,52.90
2018-09-02T12:07:06.381Z,52.80
2018-09-02T12:09:34.668Z,52.90
2018-09-02T12:12:02.956Z,52.90
2018-09-02T12:14:31.446Z,53.10
2018-09-02T12:16:59.705Z,52.90
2018-09-02T12:19:28.001Z,52.70
2018-09-02T12:21:56.322Z,52.80
2018-09-02T12:24:24.619Z,52.60
2018-09-02T12:26:52.921Z,52.70
2018-09-02T12:29:21.222Z,52.70
2018-09-02T12:31:49.498Z,52.50
2018-09-02T12:34:17.771Z,52.60
2018-09-02T12:36:46.040Z,52.50
2018-09-02T12:39:14.365Z,52.50
2018-09-02T12:41:42.643Z,52.50
2018-09-02T12:44:10.950Z,52.50
2018-09-02T12:46:39.285Z,52.60
2018-09-02T12:49:07.608Z,52.80
2018-09-02T12:51:35.943Z,50.20
2018-09-02T12:54:05.154Z,51.60
2018-09-02T12:56:33.475Z,52.20
2018-09-02T12:59:01.746Z,52.30
2018-09-02T13:01:30.027Z,52.50
2018-09-02T13:03:58.318Z,52.60
2018-09-02T13:06:26.651Z,52.60
2018-09-02T13:08:54.971Z,52.60
2018-09-02T13:11:23.276Z,52.70
2018-09-02T13:13:51.621Z,52.70
2018-09-02T13:16:19.925Z,52.80
2018-09-02T13:18:48.249Z,52.70
2018-09-02T13:21:16.628Z,52.70
2018-09-02T13:23:44.934Z,52.60
2018-09-02T13:26:13.567Z,52.80
2018-09-02T13:28:41.924Z,52.80
2018-09-02T13:31:10.220Z,52.80
2018-09-02T13:33:38.594Z,52.90
2018-09-02T13:36:06.949Z,53.00
2018-09-02T13:38:35.349Z,52.80
2018-09-02T13:41:03.718Z,52.80
2018-09-02T13:43:32.022Z,52.90
2018-09-02T13:46:00.459Z,52.80
2018-09-02T13:48:28.860Z,52.90
2018-09-02T13:50:57.169Z,52.90
2018-09-02T13:53:25.633Z,52.90
2018-09-02T13:55:54.130Z,52.90
2018-09-02T13:58:22.432Z,52.90
2018-09-02T14:00:50.726Z,52.90
2018-09-02T14:03:19.052Z,52.80
2018-09-02T14:05:47.598Z,52.80
2018-09-02T14:08:16.058Z,52.70
2018-09-02T14:10:44.371Z,52.70
2018-09-02T14:13:12.706Z,52.70
2018-09-02T14:15:41.009Z,52.70
2018-09-02T14:18:09.384Z,52.80
2018-09-02T14:20:37.707Z,52.70
2018-09-02T14:23:06.051Z,52.70
2018-09-02T14:25:34.372Z,52.60
2018-09-02T14:28:02.714Z,52.60
2018-09-02T14:30:31.023Z,52.50
2018-09-02T14:32:59.327Z,52.50
2018-09-02T14:35:27.627Z,52.30
2018-09-02T14:37:55.917Z,52.30
2018-09-02T14:40:24.221Z,52.80
2018-09-02T14:42:52.507Z,52.10
2018-09-02T14:45:20.815Z,52.20
2018-09-02T14:47:49.123Z,52.10
2018-09-02T14:50:17.407Z,52.00
2018-09-02T14:52:45.738Z,51.90
2018-09-02T14:55:14.061Z,51.80
2018-09-02T14:57:42.350Z,52.20
2018-09-02T15:00:10.700Z,51.80
2018-09-02T15:02:38.996Z,51.80
2018-09-02T15:05:07.815Z,51.70
2018-09-02T15:07:36.136Z,51.60
2018-09-02T15:10:04.433Z,51.60
2018-09-02T15:12:32.732Z,51.60
2018-09-02T15:15:01.090Z,51.60
2018-09-02T15:17:29.482Z,51.50
2018-09-02T15:19:58.082Z,51.40
2018-09-02T15:22:26.484Z,51.30
2018-09-02T15:24:54.845Z,51.50
2018-09-02T15:27:23.309Z,51.30
2018-09-02T15:29:51.673Z,51.50
2018-09-02T15:32:20.030Z,51.40
2018-09-02T15:34:48.478Z,51.10
2018-09-02T15:37:16.791Z,51.10
2018-09-02T15:39:45.092Z,51.30
2018-09-02T15:42:13.446Z,51.00
2018-09-02T15:44:42.052Z,51.10
2018-09-02T15:47:10.937Z,51.10
2018-09-02T15:49:39.305Z,51.20
2018-09-02T15:52:07.633Z,51.10
2018-09-02T15:54:35.967Z,50.90
2018-09-02T15:57:04.729Z,50.70
2018-09-02T15:59:33.155Z,50.60
2018-09-02T16:02:01.646Z,50.70
2018-09-02T16:04:30.066Z,50.90
2018-09-02T16:06:58.394Z,50.30
2018-09-02T16:09:26.847Z,48.70
2018-09-02T16:11:55.182Z,48.50
2018-09-02T16:14:23.577Z,48.10
2018-09-02T16:16:51.948Z,47.70
2018-09-02T16:19:20.392Z,47.40
2018-09-02T16:21:48.693Z,47.00
2018-09-02T16:24:17.072Z,47.50
2018-09-02T16:26:45.480Z,48.00
2018-09-02T16:29:14.062Z,48.00
2018-09-02T16:31:42.450Z,48.00
2018-09-02T16:34:10.915Z,47.90
2018-09-02T16:36:39.235Z,48.30
2018-09-02T16:39:08.752Z,48.80
2018-09-02T16:41:37.286Z,48.70
2018-09-02T16:44:05.619Z,48.60
2018-09-02T16:46:34.002Z,48.50
2018-09-02T16:49:02.511Z,48.30
2018-09-02T16:51:30.823Z,48.50
2018-09-02T16:53:59.192Z,48.80
2018-09-02T16:56:27.544Z,49.00
2018-09-02T16:58:56.046Z,48.80
2018-09-02T17:01:24.454Z,49.10
2018-09-02T17:03:57.101Z,49.40
2018-09-02T17:06:25.509Z,49.40
2018-09-02T17:08:53.855Z,49.40
2018-09-02T17:11:22.235Z,49.60
2018-09-02T17:13:50.707Z,49.50
2018-09-02T17:16:19.077Z,49.60
2018-09-02T17:18:48.389Z,49.70
2018-09-02T17:21:16.942Z,49.60
2018-09-02T17:23:45.275Z,49.70
2018-09-02T17:26:13.847Z,49.90
2018-09-02T17:28:42.206Z,49.80
2018-09-02T17:31:10.527Z,49.70
2018-09-02T17:33:38.961Z,49.80
2018-09-02T17:36:07.389Z,51.00
2018-09-02T17:38:35.692Z,50.20
2018-09-02T17:41:04.048Z,50.30
2018-09-02T17:43:32.593Z,50.30
2018-09-02T17:46:01.188Z,50.40
2018-09-02T17:48:29.282Z,50.50
2018-09-02T17:50:57.597Z,50.40
2018-09-02T17:53:25.895Z,50.40
2018-09-02T17:55:54.584Z,50.50
2018-09-02T17:58:22.803Z,50.70
2018-09-02T18:00:52.841Z,50.60
2018-09-02T18:03:21.243Z,50.70
2018-09-02T18:05:49.795Z,50.50
2018-09-02T18:08:18.209Z,50.60
2018-09-02T18:10:46.528Z,50.50
2018-09-02T18:13:15.119Z,50.60
2018-09-02T18:15:43.442Z,50.50
2018-09-02T18:18:11.782Z,50.40
2018-09-02T18:20:40.288Z,49.90
2018-09-02T18:23:08.609Z,50.40
2018-09-02T18:25:37.303Z,49.80
2018-09-02T18:28:08.277Z,50.50
2018-09-02T18:30:36.928Z,50.60
2018-09-02T18:33:05.391Z,50.60
2018-09-02T18:35:33.984Z,50.60
2018-09-02T18:38:02.680Z,50.60
2018-09-02T18:40:31.059Z,50.70
2018-09-02T18:42:59.436Z,50.60
2018-09-02T18:45:28.151Z,50.70
2018-09-02T18:47:56.631Z,50.80
2018-09-02T18:50:25.494Z,50.90
2018-09-02T18:52:54.264Z,50.90
2018-09-02T18:55:23.075Z,50.90
2018-09-02T18:57:51.762Z,50.90
2018-09-02T19:00:20.268Z,50.80
2018-09-02T19:02:48.650Z,50.80
2018-09-02T19:05:17.409Z,50.80
2018-09-02T19:07:45.764Z,50.80
2018-09-02T19:10:14.119Z,50.80
2018-09-02T19:12:42.445Z,50.80
2018-09-02T19:15:10.776Z,51.40
2018-09-02T19:17:39.609Z,51.60
2018-09-02T19:20:13.032Z,51.10
2018-09-02T19:22:41.693Z,50.80
2018-09-02T19:25:10.372Z,50.40
2018-09-02T19:27:39.109Z,51.00
2018-09-02T19:30:07.925Z,50.80
2018-09-02T19:32:36.652Z,51.10
2018-09-02T19:35:05.208Z,50.90
2018-09-02T19:37:33.807Z,51.10
2018-09-02T19:40:02.503Z,50.80
2018-09-02T19:42:30.891Z,51.00
2018-09-02T19:44:59.210Z,50.90
2018-09-02T19:47:27.543Z,50.90
2018-09-02T19:49:55.846Z,51.00
2018-09-02T19:52:24.251Z,51.10
2018-09-02T19:54:52.697Z,51.10
2018-09-02T19:57:21.263Z,50.90
2018-09-02T19:59:49.640Z,50.90
2018-09-02T20:02:17.950Z,50.90
2018-09-02T20:04:46.448Z,50.80
2018-09-02T20:07:14.776Z,50.70
2018-09-02T20:09:43.104Z,50.80
2018-09-02T20:12:11.484Z,50.80
2018-09-02T20:14:39.883Z,50.80
2018-09-02T20:17:08.232Z,51.00
2018-09-02T20:19:36.791Z,50.90
2018-09-02T20:22:06.982Z,51.10
2018-09-02T20:24:35.335Z,51.20
2018-09-02T20:27:03.670Z,51.30
2018-09-02T20:29:32.048Z,51.10
2018-09-02T20:32:00.498Z,50.90
2018-09-02T20:34:28.814Z,50.90
2018-09-02T20:36:57.111Z,50.90
2018-09-02T20:39:25.482Z,50.90
2018-09-02T20:41:53.787Z,50.40
2018-09-02T20:44:22.184Z,51.00
2018-09-02T20:46:50.519Z,51.00
2018-09-02T20:49:18.831Z,51.00
2018-09-02T20:51:47.178Z,51.10
2018-09-02T20:54:15.511Z,51.20
2018-09-02T20:56:43.865Z,51.20
2018-09-02T20:59:12.246Z,51.20
2018-09-02T21:01:40.571Z,51.00
2018-09-02T21:04:08.992Z,51.00
2018-09-02T21:06:37.407Z,51.10
2018-09-02T21:09:08.511Z,51.10
2018-09-02T21:11:36.909Z,51.10
2018-09-02T21:14:05.423Z,51.10
2018-09-02T21:16:33.757Z,51.10
2018-09-02T21:19:02.254Z,51.10
2018-09-02T21:21:30.646Z,51.20
2018-09-02T21:23:59.228Z,51.10
2018-09-02T21:26:27.670Z,51.20
2018-09-02T21:28:56.133Z,51.40
2018-09-02T21:31:24.460Z,51.50
2018-09-02T21:33:52.815Z,51.60
2018-09-02T21:36:21.161Z,51.40
2018-09-02T21:38:49.480Z,51.60
2018-09-02T21:41:17.849Z,51.60
2018-09-02T21:43:46.280Z,51.40
2018-09-02T21:46:14.593Z,51.30
2018-09-02T21:48:42.960Z,51.30
2018-09-02T21:51:11.294Z,51.30
2018-09-02T21:53:40.135Z,51.40
2018-09-02T21:56:08.426Z,51.40
2018-09-02T21:58:36.764Z,51.40
2018-09-02T22:01:05.096Z,51.30
2018-09-02T22:03:33.403Z,51.40
2018-09-02T22:06:01.696Z,51.40
2018-09-02T22:08:30.039Z,51.40
2018-09-02T22:10:58.383Z,51.40
2018-09-02T22:13:26.694Z,51.50
2018-09-02T22:15:55.064Z,51.50
2018-09-02T22:18:23.448Z,51.50
2018-09-02T22:20:51.759Z,51.50
2018-09-02T22:23:20.039Z,51.70
2018-09-02T22:25:48.408Z,51.70
2018-09-02T22:28:16.769Z,51.70
2018-09-02T22:30:45.105Z,51.80
2018-09-02T22:33:15.287Z,51.90
2018-09-02T22:35:43.638Z,51.90
2018-09-02T22:38:12.564Z,51.80
2018-09-02T22:40:40.971Z,51.90
2018-09-02T22:43:09.260Z,52.00
2018-09-02T22:45:37.638Z,52.00
2018-09-02T22:48:06.016Z,52.10
2018-09-02T22:50:34.482Z,52.10
2018-09-02T22:53:02.867Z,52.10
2018-09-02T22:55:31.228Z,52.10
2018-09-02T22:57:59.833Z,52.70
2018-09-02T23:00:28.186Z,52.10
2018-09-02T23:02:56.502Z,52.10
2018-09-02T23:05:24.814Z,52.10
2018-09-02T23:07:53.255Z,52.20
2018-09-02T23:10:21.572Z,52.10
2018-09-02T23:12:49.936Z,52.10
2018-09-02T23:15:18.245Z,52.10
2018-09-02T23:17:46.582Z,52.10
2018-09-02T23:20:14.994Z,52.10
2018-09-02T23:22:43.435Z,52.10
2018-09-02T23:25:11.887Z,52.10
2018-09-02T23:27:40.279Z,52.10
2018-09-02T23:30:08.660Z,52.10
2018-09-02T23:32:37.004Z,52.10
2018-09-02T23:35:05.414Z,52.10
2018-09-02T23:37:33.807Z,52.10
2018-09-02T23:40:02.125Z,52.30
2018-09-02T23:42:30.506Z,52.10
2018-09-02T23:44:58.856Z,52.10
2018-09-02T23:47:27.320Z,52.10
2018-09-02T23:49:55.687Z,52.10
2018-09-02T23:52:23.993Z,52.20
2018-09-02T23:54:52.306Z,52.30
2018-09-02T23:57:20.616Z,52.30
2018-09-02T23:59:48.934Z,52.40
